Time;durP1;ratioP1;P1;durP2;ratioP2;P2;SDS_P1;SDS_P2;PMS_P1;PMS_P2;Temp;Humidity;BMP_temperature;BMP_pressure;BME280_temperature;BME280_humidity;BME280_pressure;Samples;Min_cycle;Max_cycle;Signal;HPM_P1;HPM_P2
2023/12/28 00:00:26;;;;;;;4.65;1.90;;;11.20;99.90;;;;;;5114665;28;20039;-65
2023/12/28 00:02:52;;;;;;;3.13;1.80;;;11.30;99.90;;;;;;5114934;28;20061;-66
2023/12/28 00:05:18;;;;;;;3.83;1.83;;;11.30;99.90;;;;;;5114813;28;20028;-66
2023/12/28 00:07:43;;;;;;;2.75;1.83;;;11.30;99.90;;;;;;5113533;28;20024;-66
2023/12/28 00:10:09;;;;;;;2.13;1.77;;;11.20;99.90;;;;;;5114833;28;20024;-66
2023/12/28 00:12:35;;;;;;;2.92;1.92;;;11.20;99.90;;;;;;5114692;28;20069;-66
2023/12/28 00:15:01;;;;;;;2.88;1.67;;;11.20;99.90;;;;;;5114728;28;20021;-66
2023/12/28 00:17:26;;;;;;;3.35;2.25;;;11.20;99.90;;;;;;5114611;28;20081;-66
2023/12/28 00:19:52;;;;;;;2.83;1.88;;;11.20;99.90;;;;;;5114488;28;20088;-66
2023/12/28 00:22:17;;;;;;;3.70;2.15;;;11.20;99.90;;;;;;5114468;28;20028;-66
2023/12/28 00:24:43;;;;;;;4.15;2.15;;;11.20;99.90;;;;;;5114437;28;20028;-66
2023/12/28 00:27:09;;;;;;;4.05;2.22;;;11.20;99.90;;;;;;5114339;28;20031;-66
2023/12/28 00:29:38;;;;;;;4.55;2.03;;;11.20;99.90;;;;;;5114418;28;20043;-67
2023/12/28 00:32:05;;;;;;;5.90;2.20;;;11.20;99.90;;;;;;5114143;28;20025;-67
2023/12/28 00:34:30;;;;;;;3.67;2.15;;;11.20;99.90;;;;;;5114215;28;20028;-66
2023/12/28 00:36:56;;;;;;;3.70;2.30;;;11.20;99.90;;;;;;5114171;28;20039;-66
2023/12/28 00:39:22;;;;;;;3.78;1.92;;;11.20;99.90;;;;;;5114205;28;20103;-66
2023/12/28 00:41:47;;;;;;;3.78;2.08;;;11.20;99.90;;;;;;5114131;28;20436;-66
2023/12/28 00:44:13;;;;;;;3.95;2.00;;;11.20;99.90;;;;;;5114095;28;20061;-66
2023/12/28 00:46:39;;;;;;;2.95;1.95;;;11.20;99.90;;;;;;5114093;28;20028;-66
2023/12/28 00:49:04;;;;;;;3.72;2.05;;;11.20;99.90;;;;;;5113881;28;20020;-66
2023/12/28 00:51:30;;;;;;;4.30;1.95;;;11.20;99.90;;;;;;5114072;28;20062;-66
2023/12/28 00:53:55;;;;;;;3.85;2.13;;;11.20;99.90;;;;;;5113941;28;20020;-66
2023/12/28 00:56:21;;;;;;;2.83;1.73;;;11.20;99.90;;;;;;5113911;28;20039;-66
2023/12/28 00:58:47;;;;;;;4.05;2.15;;;11.10;99.90;;;;;;5113783;28;20032;-66
2023/12/28 01:01:13;;;;;;;3.72;2.35;;;11.10;99.90;;;;;;5113299;28;20052;-66
2023/12/28 01:03:38;;;;;;;2.53;1.67;;;11.10;99.90;;;;;;5113607;28;20035;-66
2023/12/28 01:06:07;;;;;;;5.63;2.42;;;11.10;99.90;;;;;;5113708;28;20024;-66
2023/12/28 01:08:36;;;;;;;6.65;2.38;;;11.10;99.90;;;;;;5113619;28;20028;-66
2023/12/28 01:11:02;;;;;;;2.95;2.10;;;11.10;99.90;;;;;;5113542;28;20050;-66
2023/12/28 01:13:28;;;;;;;6.40;2.80;;;11.10;99.90;;;;;;5113549;28;20020;-67
2023/12/28 01:15:54;;;;;;;3.67;2.17;;;11.20;99.90;;;;;;5113536;28;20021;-66
2023/12/28 01:18:20;;;;;;;4.65;2.28;;;11.20;99.90;;;;;;5113035;28;20047;-66
2023/12/28 01:20:46;;;;;;;4.88;2.67;;;11.20;99.90;;;;;;5113408;28;20024;-67
2023/12/28 01:23:12;;;;;;;4.07;2.20;;;11.20;99.90;;;;;;5113400;28;20033;-66
2023/12/28 01:25:37;;;;;;;4.53;2.10;;;11.20;99.90;;;;;;5113325;28;20032;-66
2023/12/28 01:28:04;;;;;;;4.35;2.25;;;11.20;99.90;;;;;;5113295;28;20062;-66
2023/12/28 01:30:30;;;;;;;4.18;2.10;;;11.20;99.90;;;;;;5113183;28;20020;-66
2023/12/28 01:32:55;;;;;;;3.15;2.13;;;11.20;99.90;;;;;;5113254;28;20157;-66
2023/12/28 01:35:21;;;;;;;4.32;2.05;;;11.20;99.90;;;;;;5113119;28;20235;-66
2023/12/28 01:37:46;;;;;;;4.35;2.25;;;11.20;99.90;;;;;;5113139;28;20032;-66
2023/12/28 01:40:12;;;;;;;3.25;2.13;;;11.30;99.90;;;;;;5113195;28;20032;-66
2023/12/28 01:42:39;;;;;;;4.55;2.53;;;11.30;99.90;;;;;;5113116;28;20386;-66
2023/12/28 01:45:05;;;;;;;5.07;2.30;;;11.30;99.90;;;;;;5113055;28;20043;-66
2023/12/28 01:47:31;;;;;;;4.70;2.00;;;11.40;99.90;;;;;;5112928;28;20027;-67
2023/12/28 01:49:57;;;;;;;3.47;2.20;;;11.40;99.90;;;;;;5113072;28;20024;-66
2023/12/28 01:52:23;;;;;;;4.10;2.30;;;11.40;99.90;;;;;;5112982;28;20020;-66
2023/12/28 01:54:49;;;;;;;4.10;2.10;;;11.40;99.90;;;;;;5112954;28;20054;-67
2023/12/28 01:57:16;;;;;;;4.10;2.30;;;11.50;99.90;;;;;;5112833;28;20077;-66
2023/12/28 01:59:42;;;;;;;5.35;2.33;;;11.50;99.90;;;;;;5112888;28;20085;-67
2023/12/28 02:02:08;;;;;;;4.63;2.28;;;11.50;99.90;;;;;;5112413;28;20056;-66
2023/12/28 02:04:35;;;;;;;6.35;2.00;;;11.50;99.90;;;;;;5112677;28;20024;-66
2023/12/28 02:07:00;;;;;;;3.60;1.90;;;11.50;99.90;;;;;;5112751;28;20028;-66
2023/12/28 02:09:26;;;;;;;4.72;2.15;;;11.50;99.90;;;;;;5112788;28;20024;-67
2023/12/28 02:11:53;;;;;;;5.53;2.00;;;11.40;99.90;;;;;;5112781;28;20031;-66
2023/12/28 02:14:21;;;;;;;2.83;1.73;;;11.40;99.90;;;;;;5112713;28;20025;-68
2023/12/28 02:17:04;;;;;;;2.83;1.95;;;11.40;99.90;;;;;;5112632;28;20031;-67
2023/12/28 02:19:40;;;;;;;4.50;2.25;;;11.40;99.90;;;;;;5112708;28;20027;-66
2023/12/28 02:22:07;;;;;;;3.63;1.98;;;11.40;99.90;;;;;;5112619;28;20046;-66
2023/12/28 02:24:36;;;;;;;3.70;1.90;;;11.40;99.90;;;;;;5112484;28;20080;-66
2023/12/28 02:27:02;;;;;;;3.88;1.98;;;11.40;99.90;;;;;;5112331;28;20083;-66
2023/12/28 02:29:28;;;;;;;3.60;2.17;;;11.40;99.90;;;;;;5112482;28;20031;-66
2023/12/28 02:32:04;;;;;;;3.55;2.00;;;11.40;99.90;;;;;;5115713;28;20039;-66
2023/12/28 02:34:37;;;;;;;4.53;1.80;;;11.40;99.90;;;;;;5116766;28;20027;-66
2023/12/28 02:37:04;;;;;;;5.68;2.17;;;11.40;99.90;;;;;;5116565;28;20016;-66
2023/12/28 02:39:31;;;;;;;3.70;1.70;;;11.40;99.90;;;;;;5116548;28;20031;-66
2023/12/28 02:41:57;;;;;;;3.30;1.90;;;11.30;99.90;;;;;;5116599;28;20035;-66
2023/12/28 02:44:23;;;;;;;4.32;2.30;;;11.30;99.90;;;;;;5116408;28;20103;-66
2023/12/28 02:46:49;;;;;;;4.68;1.83;;;11.30;99.90;;;;;;5116411;28;20032;-66
2023/12/28 02:49:15;;;;;;;5.90;2.05;;;11.30;99.90;;;;;;5116354;28;20028;-67
2023/12/28 02:51:42;;;;;;;5.97;2.03;;;11.30;99.90;;;;;;5116335;28;20042;-66
2023/12/28 02:54:08;;;;;;;5.72;1.70;;;11.30;99.90;;;;;;5116209;28;20024;-66
2023/12/28 02:56:33;;;;;;;4.13;1.73;;;11.30;99.90;;;;;;5116298;28;20036;-67
2023/12/28 02:58:59;;;;;;;7.88;1.90;;;11.30;99.90;;;;;;5116114;28;20040;-66
2023/12/28 03:01:25;;;;;;;3.60;1.92;;;11.30;99.90;;;;;;5115735;28;20032;-66
2023/12/28 03:03:51;;;;;;;4.22;1.98;;;11.30;99.90;;;;;;5116001;28;20036;-66
2023/12/28 03:06:16;;;;;;;3.65;1.80;;;11.20;99.90;;;;;;5116051;28;20024;-66
2023/12/28 03:08:42;;;;;;;3.55;2.05;;;11.20;99.90;;;;;;5115921;28;20024;-66
2023/12/28 03:11:08;;;;;;;5.47;1.90;;;11.20;99.90;;;;;;5115974;28;20028;-66
2023/12/28 03:13:33;;;;;;;3.65;1.92;;;11.20;99.90;;;;;;5115901;28;20060;-66
2023/12/28 03:15:59;;;;;;;4.32;1.95;;;11.20;99.90;;;;;;5115936;28;20031;-66
2023/12/28 03:18:24;;;;;;;3.10;1.90;;;11.20;99.90;;;;;;5115831;28;20028;-66
2023/12/28 03:20:50;;;;;;;3.08;1.73;;;11.30;99.90;;;;;;5115744;28;20028;-66
2023/12/28 03:23:15;;;;;;;3.53;1.80;;;11.20;99.90;;;;;;5115745;28;20024;-67
2023/12/28 03:25:41;;;;;;;2.53;1.55;;;11.30;99.90;;;;;;5115569;28;20115;-66
2023/12/28 03:28:07;;;;;;;6.72;2.00;;;11.20;99.90;;;;;;5115546;28;20029;-66
2023/12/28 03:30:32;;;;;;;4.68;1.80;;;11.20;99.90;;;;;;5115373;28;20039;-66
2023/12/28 03:32:58;;;;;;;3.22;1.52;;;11.20;99.90;;;;;;5115470;28;20031;-66
2023/12/28 03:35:23;;;;;;;1.77;1.38;;;11.20;99.90;;;;;;5115624;28;20031;-66
2023/12/28 03:37:49;;;;;;;5.28;1.60;;;11.20;99.90;;;;;;5115317;28;20032;-66
2023/12/28 03:40:15;;;;;;;4.38;1.75;;;11.20;99.90;;;;;;5115423;28;20032;-66
2023/12/28 03:42:40;;;;;;;8.73;2.00;;;11.10;99.90;;;;;;5114982;28;20021;-66
2023/12/28 03:45:06;;;;;;;6.07;2.13;;;11.20;99.90;;;;;;5115294;28;20401;-66
2023/12/28 03:47:32;;;;;;;4.40;1.63;;;11.20;99.90;;;;;;5115312;28;20052;-66
2023/12/28 03:49:58;;;;;;;3.67;1.45;;;11.20;99.90;;;;;;5115271;28;20074;-67
2023/12/28 03:52:26;;;;;;;6.70;1.67;;;11.20;99.90;;;;;;5115184;28;20039;-66
2023/12/28 03:54:51;;;;;;;4.80;2.05;;;11.20;99.90;;;;;;5115206;28;20042;-66
2023/12/28 03:57:17;;;;;;;2.20;1.50;;;11.20;99.90;;;;;;5115013;28;20032;-66
2023/12/28 03:59:43;;;;;;;3.70;1.63;;;11.30;99.90;;;;;;5115002;28;20028;-66
2023/12/28 04:02:08;;;;;;;5.50;1.75;;;11.30;99.90;;;;;;5114597;28;20074;-66
2023/12/28 04:04:34;;;;;;;3.25;1.40;;;11.30;99.90;;;;;;5114815;28;20043;-66
2023/12/28 04:06:59;;;;;;;5.30;2.00;;;11.20;99.90;;;;;;5114773;28;20083;-66
2023/12/28 04:09:25;;;;;;;4.00;1.58;;;11.20;99.90;;;;;;5114820;28;20028;-66
2023/12/28 04:11:50;;;;;;;3.45;1.65;;;11.20;99.90;;;;;;5114839;28;20039;-66
2023/12/28 04:14:16;;;;;;;3.67;1.80;;;11.20;99.90;;;;;;5114802;28;20035;-66
2023/12/28 04:16:42;;;;;;;5.63;1.77;;;11.20;99.90;;;;;;5114679;28;20032;-66
2023/12/28 04:19:08;;;;;;;5.13;1.70;;;11.20;99.90;;;;;;5114723;28;20028;-66
2023/12/28 04:21:33;;;;;;;6.10;2.17;;;11.20;99.90;;;;;;5114497;28;20043;-65
2023/12/28 04:23:59;;;;;;;7.40;1.70;;;11.20;99.90;;;;;;5114455;28;20028;-66
2023/12/28 04:26:24;;;;;;;3.90;1.73;;;11.10;99.90;;;;;;5114533;28;20028;-66
2023/12/28 04:28:50;;;;;;;4.95;1.60;;;11.10;99.90;;;;;;5114503;28;20086;-66
2023/12/28 04:31:15;;;;;;;2.80;1.30;;;11.20;99.90;;;;;;5114249;28;20027;-66
2023/12/28 04:33:41;;;;;;;5.95;1.88;;;11.20;99.90;;;;;;5114469;28;20501;-66
2023/12/28 04:36:07;;;;;;;3.83;1.52;;;11.20;99.90;;;;;;5114216;28;20027;-67
2023/12/28 04:38:33;;;;;;;5.05;1.48;;;11.20;99.90;;;;;;5114426;28;20027;-66
2023/12/28 04:41:00;;;;;;;7.22;2.13;;;11.20;99.90;;;;;;5114261;28;20042;-66
2023/12/28 04:43:26;;;;;;;5.15;1.50;;;11.30;99.90;;;;;;5114200;28;20026;-66
2023/12/28 04:45:52;;;;;;;6.70;1.50;;;11.20;99.90;;;;;;5114069;28;20020;-66
2023/12/28 04:48:23;;;;;;;5.13;1.50;;;11.30;99.90;;;;;;5114035;28;20084;-66
2023/12/28 04:50:49;;;;;;;3.65;1.20;;;11.20;99.90;;;;;;5114001;28;20079;-66
2023/12/28 04:53:15;;;;;;;6.95;1.73;;;11.20;99.90;;;;;;5113219;28;20050;-66
2023/12/28 04:55:40;;;;;;;7.68;1.85;;;11.20;99.90;;;;;;5113955;28;20083;-66
2023/12/28 04:58:06;;;;;;;4.22;1.48;;;11.20;99.90;;;;;;5113747;28;20042;-66
2023/12/28 05:00:32;;;;;;;9.50;1.92;;;11.20;99.90;;;;;;5113722;28;20121;-66
2023/12/28 05:02:57;;;;;;;4.30;1.48;;;11.20;99.90;;;;;;5113694;28;20109;-67
2023/12/28 05:05:23;;;;;;;5.50;1.23;;;11.30;99.90;;;;;;5113584;28;20024;-66
2023/12/28 05:07:49;;;;;;;4.97;1.65;;;11.30;99.90;;;;;;5113624;28;20028;-66
2023/12/28 05:10:14;;;;;;;3.55;1.30;;;11.40;99.90;;;;;;5112735;28;20020;-66
2023/12/28 05:12:40;;;;;;;6.53;1.92;;;11.40;99.90;;;;;;5113584;28;20024;-66
2023/12/28 05:15:06;;;;;;;7.13;1.30;;;11.50;99.90;;;;;;5113577;28;20034;-66
2023/12/28 05:17:32;;;;;;;4.20;1.48;;;11.50;99.90;;;;;;5113509;28;20020;-67
2023/12/28 05:19:57;;;;;;;4.57;1.00;;;11.50;99.90;;;;;;5112270;28;20051;-66
2023/12/28 05:22:23;;;;;;;5.15;1.33;;;11.50;99.90;;;;;;5113383;28;20482;-68
2023/12/28 05:24:48;;;;;;;4.28;1.30;;;11.60;99.90;;;;;;5113408;28;20028;-67
2023/12/28 05:27:14;;;;;;;4.70;1.20;;;11.70;99.90;;;;;;5113254;28;20060;-66
2023/12/28 05:29:39;;;;;;;9.38;1.60;;;11.70;99.90;;;;;;5112348;28;20051;-67
2023/12/28 05:32:05;;;;;;;5.15;1.58;;;11.70;99.90;;;;;;5113056;28;20080;-66
2023/12/28 05:34:31;;;;;;;5.20;1.20;;;11.70;99.90;;;;;;5113192;28;20082;-67
2023/12/28 05:36:57;;;;;;;9.18;1.40;;;11.80;99.90;;;;;;5113277;28;20032;-67
2023/12/28 05:39:22;;;;;;;4.53;1.15;;;11.80;99.90;;;;;;5113171;28;20036;-67
2023/12/28 05:41:50;;;;;;;4.18;1.52;;;11.80;99.90;;;;;;5113145;28;20043;-66
2023/12/28 05:44:16;;;;;;;5.80;1.38;;;11.80;99.90;;;;;;5113099;28;20028;-67
2023/12/28 05:46:42;;;;;;;9.38;1.33;;;11.80;99.90;;;;;;5113107;28;20024;-66
2023/12/28 05:49:07;;;;;;;5.93;1.50;;;11.80;99.90;;;;;;5112959;28;20111;-66
2023/12/28 05:51:40;;;;;;;5.82;0.88;;;11.70;99.90;;;;;;5112975;28;20080;-66
2023/12/28 05:54:06;;;;;;;3.53;1.00;;;11.60;99.90;;;;;;5112990;28;20134;-66
2023/12/28 05:56:32;;;;;;;4.45;1.13;;;11.60;99.90;;;;;;5112851;28;20028;-65
2023/12/28 05:58:57;;;;;;;7.95;1.65;;;11.60;99.90;;;;;;5112606;28;20066;-65
2023/12/28 06:01:23;;;;;;;8.18;1.40;;;11.60;99.90;;;;;;5111906;28;20048;-66
2023/12/28 06:03:52;;;;;;;3.08;1.13;;;11.70;99.90;;;;;;5112258;28;20035;-66
2023/12/28 06:06:18;;;;;;;9.25;1.50;;;11.60;99.90;;;;;;5112602;28;20066;-66
2023/12/28 06:08:44;;;;;;;7.82;1.52;;;11.70;99.90;;;;;;5112590;28;20024;-66
2023/12/28 06:11:10;;;;;;;6.93;1.40;;;11.70;99.90;;;;;;5111484;28;20107;-66
2023/12/28 06:13:35;;;;;;;6.50;1.60;;;11.70;99.90;;;;;;5112284;28;20096;-67
2023/12/28 06:16:01;;;;;;;8.68;1.15;;;11.70;99.90;;;;;;5112329;28;20047;-66
2023/12/28 06:18:26;;;;;;;6.40;1.00;;;11.70;99.90;;;;;;5112207;28;20440;-66
2023/12/28 06:20:52;;;;;;;4.63;1.40;;;11.80;99.90;;;;;;5112173;28;20028;-66
2023/12/28 06:23:18;;;;;;;5.65;1.77;;;11.80;99.90;;;;;;5112262;28;20028;-66
2023/12/28 06:25:43;;;;;;;7.15;1.80;;;11.80;99.90;;;;;;5112060;28;20031;-67
2023/12/28 06:28:09;;;;;;;4.93;1.20;;;11.80;99.90;;;;;;5112164;28;20035;-66
2023/12/28 06:30:35;;;;;;;5.63;1.23;;;11.90;99.90;;;;;;5111787;28;20031;-66
2023/12/28 06:33:00;;;;;;;4.93;1.30;;;11.90;99.90;;;;;;5112077;28;20024;-66
2023/12/28 06:35:26;;;;;;;5.30;1.30;;;11.90;99.90;;;;;;5111866;28;20028;-66
2023/12/28 06:37:51;;;;;;;6.32;1.02;;;11.90;99.90;;;;;;5112454;28;20047;-66
2023/12/28 06:40:17;;;;;;;6.55;2.03;;;11.90;99.90;;;;;;5112432;28;20039;-66
2023/12/28 06:42:43;;;;;;;5.05;1.55;;;11.90;99.90;;;;;;5112384;28;20040;-66
2023/12/28 06:45:10;;;;;;;11.30;1.45;;;11.90;99.90;;;;;;5112367;28;20088;-66
2023/12/28 06:47:36;;;;;;;7.45;1.45;;;11.90;99.90;;;;;;5112358;28;20028;-66
2023/12/28 06:50:01;;;;;;;7.90;1.55;;;11.90;99.90;;;;;;5112444;28;20021;-66
2023/12/28 06:52:27;;;;;;;5.82;1.63;;;11.90;99.90;;;;;;5111317;28;20025;-66
2023/12/28 06:54:53;;;;;;;8.13;1.20;;;11.90;99.90;;;;;;5112410;28;20039;-66
2023/12/28 06:57:19;;;;;;;8.45;1.40;;;11.90;99.90;;;;;;5112273;28;20029;-66
2023/12/28 06:59:44;;;;;;;9.15;1.50;;;11.90;99.90;;;;;;5112314;28;20047;-66
2023/12/28 07:02:10;;;;;;;7.53;1.60;;;11.90;99.90;;;;;;5111864;28;20060;-68
2023/12/28 07:04:36;;;;;;;6.85;1.48;;;11.90;99.90;;;;;;5111195;28;20050;-66
2023/12/28 07:07:01;;;;;;;9.20;1.63;;;11.90;99.90;;;;;;5112163;28;20042;-66
2023/12/28 07:09:27;;;;;;;8.10;1.85;;;11.80;99.90;;;;;;5112196;28;20024;-66
2023/12/28 07:11:52;;;;;;;5.78;1.10;;;11.80;99.90;;;;;;5112219;28;20028;-67
2023/12/28 07:14:18;;;;;;;6.90;1.90;;;11.80;99.90;;;;;;5110936;28;20063;-66
2023/12/28 07:16:44;;;;;;;5.82;1.30;;;11.80;99.90;;;;;;5112334;28;20407;-66
2023/12/28 07:19:09;;;;;;;9.65;1.48;;;11.70;99.90;;;;;;5114765;28;20154;-66
2023/12/28 07:21:35;;;;;;;10.55;1.60;;;11.70;99.90;;;;;;5115154;28;20028;-66
2023/12/28 07:24:00;;;;;;;7.10;1.98;;;11.80;99.90;;;;;;5114771;28;20114;-66
2023/12/28 07:26:26;;;;;;;13.23;1.88;;;11.70;99.90;;;;;;5115647;28;20052;-66
2023/12/28 07:28:52;;;;;;;8.80;1.30;;;11.80;99.90;;;;;;5115480;28;20038;-66
2023/12/28 07:31:27;;;;;;;7.57;1.60;;;11.80;99.90;;;;;;5115272;28;20024;-66
2023/12/28 07:33:54;;;;;;;9.65;1.40;;;11.80;99.90;;;;;;5115490;28;20044;-66
2023/12/28 07:36:20;;;;;;;7.60;1.30;;;11.80;99.90;;;;;;5115598;28;20024;-66
2023/12/28 07:38:46;;;;;;;12.43;1.70;;;11.80;99.90;;;;;;5115478;28;20034;-67
2023/12/28 07:41:12;;;;;;;16.30;1.98;;;11.80;99.90;;;;;;5115424;28;20028;-67
2023/12/28 07:43:37;;;;;;;5.38;1.40;;;11.80;99.90;;;;;;5115289;28;20024;-66
2023/12/28 07:46:03;;;;;;;8.85;1.75;;;11.70;99.90;;;;;;5115396;28;20041;-66
2023/12/28 07:48:30;;;;;;;5.70;1.25;;;11.70;99.90;;;;;;5115272;28;20020;-66
2023/12/28 07:50:56;;;;;;;3.97;1.63;;;11.60;99.90;;;;;;5115191;28;20111;-66
2023/12/28 07:53:22;;;;;;;7.07;1.13;;;11.60;99.90;;;;;;5115148;28;20021;-66
2023/12/28 07:55:48;;;;;;;11.25;1.67;;;11.60;99.90;;;;;;5115199;28;20039;-66
2023/12/28 07:58:14;;;;;;;7.65;2.00;;;11.60;99.90;;;;;;5115052;28;20133;-66
2023/12/28 08:00:39;;;;;;;7.55;1.40;;;11.60;99.90;;;;;;5114735;28;20016;-65
2023/12/28 08:03:05;;;;;;;5.60;1.35;;;11.60;99.90;;;;;;5114767;28;20074;-66
2023/12/28 08:05:31;;;;;;;8.82;1.52;;;11.60;99.90;;;;;;5114886;28;20028;-66
2023/12/28 08:07:56;;;;;;;9.55;2.25;;;11.70;99.90;;;;;;5114872;28;20032;-67
2023/12/28 08:10:22;;;;;;;14.98;2.47;;;11.70;99.90;;;;;;5114873;28;20024;-66
2023/12/28 08:12:47;;;;;;;11.60;2.10;;;11.70;99.90;;;;;;5114738;28;20038;-66
2023/12/28 08:15:13;;;;;;;11.07;1.70;;;11.70;99.90;;;;;;5114903;28;20054;-66
2023/12/28 08:17:38;;;;;;;10.90;1.55;;;11.70;99.90;;;;;;5114702;28;20031;-66
2023/12/28 08:20:06;;;;;;;10.00;1.40;;;11.80;99.90;;;;;;5114619;28;20086;-66
2023/12/28 08:22:32;;;;;;;11.23;1.67;;;11.70;99.90;;;;;;5114621;28;20039;-66
2023/12/28 08:24:58;;;;;;;6.13;1.08;;;11.80;99.90;;;;;;5114536;28;20032;-66
2023/12/28 08:27:23;;;;;;;6.15;1.55;;;11.80;99.90;;;;;;5113917;28;20107;-66
2023/12/28 08:29:49;;;;;;;12.60;1.50;;;11.80;99.90;;;;;;5101932;28;20027;-66
2023/12/28 08:32:15;;;;;;;4.05;1.58;;;11.80;99.90;;;;;;5092990;28;20013;-66
2023/12/28 08:34:40;;;;;;;7.30;1.45;;;11.80;99.90;;;;;;5092559;28;20028;-66
2023/12/28 08:37:06;;;;;;;5.70;1.17;;;11.80;99.90;;;;;;5093443;28;20032;-66
2023/12/28 08:39:32;;;;;;;7.70;1.70;;;11.80;99.90;;;;;;5093184;28;20208;-66
2023/12/28 08:41:58;;;;;;;11.23;1.73;;;11.80;99.90;;;;;;5093379;28;20048;-65
2023/12/28 08:44:23;;;;;;;7.72;1.98;;;11.80;99.90;;;;;;5093642;28;20076;-66
2023/12/28 08:46:49;;;;;;;8.98;1.48;;;11.80;99.90;;;;;;5093745;28;20557;-66
2023/12/28 08:49:15;;;;;;;13.30;1.80;;;11.80;99.90;;;;;;5093677;28;20076;-66
2023/12/28 08:51:42;;;;;;;7.07;1.52;;;11.90;99.90;;;;;;5093786;28;20021;-65
2023/12/28 08:54:08;;;;;;;7.75;1.80;;;11.90;99.90;;;;;;5093656;28;20028;-66
2023/12/28 08:56:34;;;;;;;10.63;1.42;;;11.90;99.90;;;;;;5093606;28;20072;-65
2023/12/28 08:59:00;;;;;;;5.95;1.05;;;11.90;99.90;;;;;;5093593;28;20025;-66
2023/12/28 09:01:25;;;;;;;9.63;1.60;;;11.90;99.90;;;;;;5093234;28;20135;-66
2023/12/28 09:03:53;;;;;;;10.38;3.05;;;11.90;99.90;;;;;;5093457;28;20032;-66
2023/12/28 09:06:20;;;;;;;8.27;1.63;;;11.90;99.90;;;;;;5093462;28;20038;-66
2023/12/28 09:08:50;;;;;;;10.13;1.90;;;11.90;99.90;;;;;;5092602;28;20020;-67
2023/12/28 09:11:16;;;;;;;13.13;1.50;;;11.90;99.90;;;;;;5092846;28;20039;-65
2023/12/28 09:13:42;;;;;;;7.45;1.33;;;12.00;99.90;;;;;;5092945;28;20048;-65
2023/12/28 09:16:13;;;;;;;6.97;1.65;;;12.00;99.90;;;;;;5093141;28;20050;-66
2023/12/28 09:18:39;;;;;;;11.05;1.58;;;12.00;99.90;;;;;;5092743;28;20021;-66
2023/12/28 09:21:06;;;;;;;8.25;1.33;;;11.90;99.90;;;;;;5092540;28;20036;-65
2023/12/28 09:23:32;;;;;;;5.65;1.30;;;11.90;99.90;;;;;;5092718;28;20047;-65
2023/12/28 09:25:59;;;;;;;7.30;1.50;;;11.90;99.90;;;;;;5092578;28;20066;-66
2023/12/28 09:28:24;;;;;;;12.38;1.58;;;11.90;99.90;;;;;;5092639;28;20029;-65
2023/12/28 09:30:50;;;;;;;9.02;1.95;;;11.90;99.90;;;;;;5092224;28;20047;-65
2023/12/28 09:33:16;;;;;;;14.18;2.15;;;12.00;99.90;;;;;;5092637;28;20025;-66
2023/12/28 09:35:41;;;;;;;7.47;1.48;;;11.90;99.90;;;;;;5092572;28;20025;-66
2023/12/28 09:38:08;;;;;;;19.83;1.92;;;12.00;99.90;;;;;;5092478;28;20025;-66
2023/12/28 09:40:36;;;;;;;8.80;1.05;;;12.00;99.90;;;;;;5091973;28;20506;-66
2023/12/28 09:43:20;;;;;;;8.73;1.65;;;12.00;99.90;;;;;;5092367;28;20020;-65
2023/12/28 09:45:48;;;;;;;7.60;1.55;;;12.00;99.90;;;;;;5092361;28;20036;-66
2023/12/28 09:48:18;;;;;;;11.93;1.63;;;12.00;99.90;;;;;;5091406;28;20040;-66
2023/12/28 09:50:54;;;;;;;11.85;1.85;;;12.00;99.90;;;;;;5092111;28;20040;-65
2023/12/28 09:53:29;;;;;;;14.30;1.55;;;12.00;99.90;;;;;;5092225;28;20021;-66
2023/12/28 09:55:55;;;;;;;12.45;2.15;;;12.10;99.90;;;;;;5092352;28;20025;-66
2023/12/28 09:58:21;;;;;;;11.00;1.35;;;12.10;99.90;;;;;;5092358;28;20085;-67
2023/12/28 10:00:48;;;;;;;8.20;1.63;;;12.10;99.90;;;;;;5091851;28;20035;-65
2023/12/28 10:03:15;;;;;;;12.05;1.83;;;12.10;99.90;;;;;;5092294;28;20135;-66
2023/12/28 10:05:42;;;;;;;5.07;1.13;;;12.10;99.90;;;;;;5091981;28;20020;-66
2023/12/28 10:08:07;;;;;;;9.77;1.65;;;12.10;99.90;;;;;;5092191;28;20088;-66
2023/12/28 10:10:33;;;;;;;6.55;1.25;;;12.10;99.90;;;;;;5091906;28;20036;-66
2023/12/28 10:12:59;;;;;;;9.95;1.70;;;12.10;99.90;;;;;;5091979;28;20052;-66
2023/12/28 10:15:25;;;;;;;10.57;1.98;;;12.10;99.90;;;;;;5100096;28;20032;-66
2023/12/28 10:17:54;;;;;;;6.50;1.52;;;12.10;99.90;;;;;;5112411;28;20066;-67
2023/12/28 10:20:19;;;;;;;9.50;1.50;;;12.10;99.90;;;;;;5112342;28;20028;-65
2023/12/28 10:22:45;;;;;;;6.72;1.98;;;12.10;99.90;;;;;;5112175;28;20022;-66
2023/12/28 10:25:12;;;;;;;12.45;2.42;;;12.10;99.90;;;;;;5112196;28;20028;-66
2023/12/28 10:27:43;;;;;;;9.50;1.40;;;12.10;99.90;;;;;;5112196;28;20028;-66
2023/12/28 10:30:10;;;;;;;9.23;1.30;;;12.10;99.90;;;;;;5112297;28;20020;-65
2023/12/28 10:32:36;;;;;;;11.07;1.55;;;12.10;99.90;;;;;;5111821;28;20016;-66
2023/12/28 10:35:02;;;;;;;9.82;1.30;;;12.20;99.90;;;;;;5112020;28;20051;-66
2023/12/28 10:37:30;;;;;;;5.10;1.50;;;12.20;99.90;;;;;;5112236;28;20028;-66
2023/12/28 10:39:56;;;;;;;7.43;1.52;;;12.10;99.90;;;;;;5111984;28;20098;-66
2023/12/28 10:42:34;;;;;;;10.38;1.50;;;12.10;99.90;;;;;;5112215;28;20028;-66
2023/12/28 10:45:08;;;;;;;7.57;1.88;;;12.10;99.90;;;;;;5111834;28;20092;-66
2023/12/28 10:47:37;;;;;;;6.28;1.50;;;12.10;99.90;;;;;;5111998;28;20028;-66
2023/12/28 10:50:05;;;;;;;10.85;1.80;;;12.10;99.90;;;;;;5112182;28;20486;-66
2023/12/28 10:52:33;;;;;;;9.00;1.65;;;12.20;99.90;;;;;;5114761;28;20030;-66
2023/12/28 10:55:33;;;;;;;9.38;2.28;;;12.20;99.90;;;;;;5115832;28;20041;-66
2023/12/28 10:58:11;;;;;;;7.30;1.38;;;12.20;99.90;;;;;;5115992;28;20084;-66
2023/12/28 11:00:43;;;;;;;5.85;1.67;;;12.20;99.90;;;;;;5115671;28;20084;-66
2023/12/28 11:03:11;;;;;;;6.53;1.42;;;12.20;99.90;;;;;;5115628;28;20073;-66
2023/12/28 11:05:39;;;;;;;9.80;1.83;;;12.20;99.90;;;;;;5115762;28;20035;-66
2023/12/28 11:08:07;;;;;;;9.88;1.70;;;12.20;99.90;;;;;;5115769;28;20372;-66
2023/12/28 11:10:34;;;;;;;9.70;2.72;;;12.20;99.90;;;;;;5115425;28;20031;-66
2023/12/28 11:13:01;;;;;;;10.45;1.70;;;12.20;99.90;;;;;;5115422;28;20024;-66
2023/12/28 11:15:29;;;;;;;12.10;2.25;;;12.20;99.90;;;;;;5115678;28;20039;-66
2023/12/28 11:17:55;;;;;;;5.80;1.20;;;12.20;99.90;;;;;;5115615;28;20039;-67
2023/12/28 11:20:21;;;;;;;8.48;1.48;;;12.20;99.90;;;;;;5115259;28;20035;-66
2023/12/28 11:22:48;;;;;;;7.05;1.48;;;12.30;99.90;;;;;;5115382;28;20024;-67
2023/12/28 11:25:18;;;;;;;15.82;4.35;;;12.30;99.90;;;;;;5115362;28;20036;-70
2023/12/28 11:27:47;;;;;;;14.65;2.75;;;12.30;99.90;;;;;;5115423;28;20044;-67
2023/12/28 11:30:13;;;;;;;6.15;1.20;;;12.30;99.90;;;;;;5115369;28;20056;-67
2023/12/28 11:32:43;;;;;;;5.40;1.52;;;12.30;99.90;;;;;;5114973;28;20024;-67
2023/12/28 11:35:11;;;;;;;8.95;1.90;;;12.30;99.90;;;;;;5115089;28;20035;-66
2023/12/28 11:37:42;;;;;;;10.40;2.92;;;12.30;99.90;;;;;;5114320;28;20031;-66
2023/12/28 11:40:18;;;;;;;12.15;1.75;;;12.30;99.90;;;;;;5094494;28;20024;-66
2023/12/28 11:42:51;;;;;;;6.82;1.67;;;12.30;99.90;;;;;;5094641;28;20130;-67
2023/12/28 11:45:19;;;;;;;7.47;1.33;;;12.30;99.90;;;;;;5094528;28;20025;-67
2023/12/28 11:47:44;;;;;;;7.65;1.45;;;12.30;99.90;;;;;;5093678;28;20047;-66
2023/12/28 11:50:11;;;;;;;9.73;2.58;;;12.30;99.90;;;;;;5094657;28;20009;-67
2023/12/28 11:52:36;;;;;;;8.27;1.30;;;12.30;99.90;;;;;;5094503;28;20020;-66
2023/12/28 11:55:04;;;;;;;8.52;1.52;;;12.30;99.90;;;;;;5094313;28;20028;-67
2023/12/28 11:57:30;;;;;;;12.65;2.15;;;12.30;99.90;;;;;;5094484;28;20025;-67
2023/12/28 11:59:56;;;;;;;10.10;2.03;;;12.30;99.90;;;;;;5094255;28;20027;-67
2023/12/28 12:02:22;;;;;;;6.78;1.92;;;12.30;99.90;;;;;;5093881;28;20115;-67
2023/12/28 12:04:48;;;;;;;6.88;1.33;;;12.30;99.90;;;;;;5094167;28;20486;-67
2023/12/28 12:07:14;;;;;;;11.48;1.67;;;12.30;99.90;;;;;;5094379;28;20042;-68
2023/12/28 12:09:39;;;;;;;8.02;1.88;;;12.30;99.90;;;;;;5094284;28;20028;-67
2023/12/28 12:12:07;;;;;;;10.73;1.77;;;12.30;99.90;;;;;;5094160;28;20041;-67
2023/12/28 12:14:34;;;;;;;12.85;1.58;;;12.20;99.90;;;;;;5094124;28;20021;-67
2023/12/28 12:17:00;;;;;;;10.07;1.88;;;12.20;99.90;;;;;;5093935;28;20038;-66
2023/12/28 12:19:26;;;;;;;9.13;1.50;;;12.20;99.90;;;;;;5094113;28;20021;-67
2023/12/28 12:21:56;;;;;;;12.73;2.47;;;12.20;99.90;;;;;;5094020;28;20032;-67
2023/12/28 12:24:23;;;;;;;6.65;1.67;;;12.20;99.90;;;;;;5093937;28;20033;-68
2023/12/28 12:26:51;;;;;;;11.35;1.80;;;12.20;99.90;;;;;;5093528;28;20076;-67
2023/12/28 12:29:17;;;;;;;13.88;1.92;;;12.20;99.90;;;;;;5093622;28;20034;-67
2023/12/28 12:31:46;;;;;;;13.52;3.90;;;12.20;99.90;;;;;;5093696;28;20032;-67
2023/12/28 12:34:13;;;;;;;10.32;1.50;;;12.20;99.90;;;;;;5093758;28;20016;-67
2023/12/28 12:36:39;;;;;;;6.47;2.22;;;12.20;99.90;;;;;;5093571;28;20025;-67
2023/12/28 12:39:08;;;;;;;13.55;1.85;;;12.20;99.90;;;;;;5093416;28;20035;-68
2023/12/28 12:41:34;;;;;;;7.50;2.33;;;12.20;99.90;;;;;;5093455;28;20025;-67